Latest Weather Observations for Hogan Island

IDV60801

Issued at 9:02 am EDT Thursday 19 January 2017 (issued every 30 minutes, with the page automatically refreshed every 10 minutes)

About weather observations | Map of weather stations | Latest weather observations for VIC | Other Formats
Station Details ID: 200838 Name: HOGAN ISLAND Lat: -39.22 Lon: 146.98 Height: 116.0 m
Data from the previous 72 hours. | See also: Recent months at Hogan Island
Date/Time
EDT
Temp
°C
App
Temp
°C
Dew
Point
°C
Rel
Hum
%
Delta-T
°C
Wind Press
QNH
hPa
Press
MSL
hPa
Rain since
9am
mm
Dir  Spd
km/h
Gust
km/h
Spd
kts
Gust
kts
19/09:00am 18.0 16.3 16.3 90 1.0 NE 20 26 11 14 1015.6 1015.4 0.0
19/08:30am 17.2 15.8 16.6 96 0.4 ENE 19 22 10 12 1015.3 - 0.0
19/08:00am 16.5 15.5 16.5 100 0.0 ENE 17 20 9 11 1015.2 - 0.0
19/07:30am 15.7 15.1 15.7 100 0.0 ENE 13 15 7 8 1015.2 - 0.0
19/07:00am 14.2 - 14.4 - - NE 9 11 5 6 1015.1 - 0.0
19/06:30am 13.5 - 13.7 - - ENE 7 9 4 5 1015.0 - 0.0
19/06:00am 13.4 - 13.6 - - E 7 9 4 5 1014.7 1014.5 0.0
19/05:30am 13.3 - 13.5 - - ESE 7 9 4 5 1014.6 - 0.0
19/05:00am 13.0 13.9 13.0 100 0.0 CALM 0 0 0 0 1014.6 - 0.0
19/04:30am 13.4 13.7 13.4 100 0.0 SSE 4 6 2 3 1014.5 - 0.0
19/04:00am 13.1 12.4 13.1 100 0.0 S 9 11 5 6 1014.6 - 0.0
19/03:30am 12.8 11.5 12.6 99 0.1 S 11 13 6 7 1014.7 - 0.0
19/03:00am 13.0 11.0 12.8 99 0.1 SSW 15 17 8 9 1014.8 1014.6 0.0
19/02:30am 13.9 11.7 13.3 96 0.3 SSW 17 22 9 12 1015.0 - 0.0
19/02:00am 14.2 11.4 13.2 94 0.6 SSW 20 24 11 13 1015.1 - 0.0
19/01:30am 14.4 11.4 13.6 95 0.4 SSW 22 28 12 15 1015.3 - 0.0
19/01:00am 14.6 10.4 13.5 93 0.6 SW 28 33 15 18 1015.5 - 0.0
19/12:30am 14.7 10.4 13.1 90 0.9 SW 28 35 15 19 1015.8 - 0.0
19/12:00am 14.6 10.5 13.8 95 0.4 SW 28 32 15 17 1016.1 1015.9 0.0
 
Date/Time
EDT
Temp
°C
App
Temp
°C
Dew
Point
°C
Rel
Hum
%
Delta-T
°C
Wind Press
QNH
hPa
Press
MSL
hPa
Rain since
9am
mm
Dir  Spd
km/h
Gust
km/h
Spd
kts
Gust
kts
18/11:30pm 14.7 10.4 14.4 98 0.2 SW 30 35 16 19 1016.1 - 0.0
18/11:00pm 14.6 9.4 13.5 93 0.6 SW 33 43 18 23 1015.8 - 0.0
18/10:30pm 14.7 8.6 12.9 89 1.0 WSW 37 43 20 23 1015.8 - 0.0
18/10:00pm 14.6 8.1 12.8 89 1.0 WSW 39 48 21 26 1016.1 - 0.0
18/09:30pm 14.7 7.2 12.0 84 1.5 WSW 43 48 23 26 1015.8 - 0.0
18/09:00pm 14.7 7.0 13.4 92 0.7 WSW 46 54 25 29 1015.2 1015.0 0.0
18/08:30pm 14.9 6.9 13.4 91 0.8 WSW 48 56 26 30 1015.0 - 0.0
18/08:00pm 15.3 6.3 12.8 85 1.4 WSW 52 57 28 31 1014.8 - 0.0
18/07:30pm 16.0 8.2 14.2 89 1.0 WSW 48 56 26 30 1014.9 - 0.0
18/07:00pm 16.5 8.1 13.6 83 1.6 WSW 50 57 27 31 1014.5 - 0.0
18/06:30pm 16.7 8.0 13.6 82 1.8 WSW 52 59 28 32 1014.2 - 0.0
18/06:00pm 17.0 7.8 13.5 80 2.0 WSW 54 63 29 34 1014.1 1013.9 0.0
18/05:30pm 17.4 8.6 13.3 77 2.3 WSW 52 59 28 32 1014.0 - 0.0
18/05:00pm 17.6 8.3 12.9 74 2.6 WSW 54 63 29 34 1014.0 - 0.0
18/04:30pm 17.8 8.1 12.9 73 2.8 WSW 56 65 30 35 1013.7 - 0.0
18/04:00pm 18.0 9.0 12.7 71 3.0 WSW 52 61 28 33 1013.8 - 0.0
18/03:30pm 17.7 8.1 12.2 70 3.1 W 54 63 29 34 1013.5 - 0.0
18/03:00pm 18.2 8.5 13.1 72 2.9 WSW 56 63 30 34 1013.5 1013.3 0.0
18/02:30pm 18.2 8.5 13.1 72 2.9 WSW 56 65 30 35 1013.4 - 0.0
18/02:00pm 18.1 8.1 12.8 71 3.0 WSW 57 67 31 36 1013.3 - 0.0
18/01:30pm 18.1 8.2 13.0 72 2.9 WSW 57 67 31 36 1013.2 - 0.0
18/01:00pm 17.7 7.1 11.9 69 3.2 WSW 59 69 32 37 1012.9 - 0.0
18/12:30pm 17.5 7.6 13.0 75 2.5 WSW 57 67 31 36 1012.9 - 0.0
18/12:00pm 17.9 9.6 14.8 82 1.8 WSW 52 63 28 34 1012.4 1012.2 0.0
18/11:30am 17.2 7.1 13.5 79 2.1 WSW 59 72 32 39 1011.9 - 0.0
18/11:00am 17.0 7.3 13.7 81 1.9 WSW 57 69 31 37 1011.5 - 0.0
18/10:30am 16.3 7.2 15.2 93 0.6 WSW 57 69 31 37 1011.0 - 0.0
18/10:00am 15.3 5.4 15.1 99 0.1 WSW 61 70 33 38 1010.7 - 0.0
18/09:30am 16.4 6.2 15.3 93 0.6 WSW 63 74 34 40 1010.2 - 0.0
18/09:00am 15.6 5.8 15.4 99 0.1 WSW 61 69 33 37 1010.0 1009.8 0.2
18/08:30am 15.7 5.1 15.2 97 0.3 WSW 65 74 35 40 1009.4 - 0.2
18/08:00am 15.0 5.8 15.0 100 0.0 WSW 57 67 31 36 1009.3 - 0.2
18/07:30am 14.8 4.8 14.8 100 0.0 WSW 61 69 33 37 1008.7 - 0.2
18/07:00am 14.9 5.3 14.9 100 0.0 WSW 59 69 32 37 1008.2 - 0.2
18/06:30am 14.8 - 15.0 - - WSW 57 65 31 35 1007.8 - 0.2
18/06:00am 14.7 - 15.0 - - WSW 65 76 35 41 1007.2 1007.0 0.2
18/05:30am 15.1 - 16.0 - - WSW 65 74 35 40 1006.1 - 0.2
18/05:00am 15.2 - 16.1 - - WSW 56 69 30 37 1006.1 - 0.2
18/04:35am 15.0 - 15.9 - - W 46 65 25 35 1005.9 - 0.2
18/04:30am 15.0 - 15.9 - - W 56 67 30 36 1006.1 - 0.2
18/04:00am 15.8 - 16.6 - - W 57 69 31 37 1006.3 - 0.2
18/03:30am 16.6 - 17.1 - - W 69 82 37 44 1005.5 - 0.0
18/03:00am 17.0 - 17.5 - - W 72 83 39 45 1005.6 1005.4 0.0
18/02:30am 17.8 - 18.1 - - W 67 80 36 43 1005.9 - 0.0
18/02:15am 18.1 - 18.4 - - W 59 65 32 35 1006.3 - 0.0
18/02:00am 18.3 - 18.5 - - W 37 50 20 27 1007.2 - 0.0
18/01:30am 19.0 - 19.2 - - W 50 72 27 39 1007.3 - 0.0
18/01:15am 18.6 - 18.8 - - W 43 70 23 38 1007.1 - 0.0
18/01:00am 17.9 - 18.2 - - WNW 33 39 18 21 1007.3 - 0.0
18/12:30am 18.0 - 18.3 - - WNW 24 32 13 17 1007.3 - 0.0
18/12:00am 18.0 - 18.3 - - W 22 28 12 15 1007.7 1007.5 0.0
 
Date/Time
EDT
Temp
°C
App
Temp
°C
Dew
Point
°C
Rel
Hum
%
Delta-T
°C
Wind Press
QNH
hPa
Press
MSL
hPa
Rain since
9am
mm
Dir  Spd
km/h
Gust
km/h
Spd
kts
Gust
kts
17/11:30pm 18.0 - 18.2 - - W 20 24 11 13 1007.9 - 0.0
17/11:00pm 18.3 - 18.5 - - W 28 32 15 17 1008.8 - 0.0
17/10:30pm 18.7 - 18.9 - - W 30 35 16 19 1008.5 - 0.0
17/10:00pm 18.4 - 18.6 - - WNW 24 28 13 15 1008.2 - 0.0
17/09:30pm 18.5 - 18.7 - - WNW 22 26 12 14 1007.4 - 0.0
17/09:00pm 18.4 16.4 18.4 100 0.0 WSW 26 28 14 15 1006.2 1006.0 0.0
17/08:30pm 19.1 17.7 18.9 99 0.1 W 24 28 13 15 1005.4 - 0.0
17/08:00pm 19.5 18.9 18.5 94 0.6 W 19 22 10 12 1005.2 - 0.0
17/07:30pm 19.9 19.4 18.6 92 0.8 W 19 20 10 11 1005.0 - 0.0
17/07:00pm 20.6 17.8 19.1 91 0.9 W 32 35 17 19 1005.1 - 0.0
17/06:30pm 20.6 18.7 19.3 92 0.8 W 28 32 15 17 1005.6 - 0.0
17/06:00pm 21.5 21.6 20.3 93 0.8 W 20 24 11 13 1005.5 1005.3 0.0
17/05:45pm 20.3 19.5 20.1 99 0.1 W 24 37 13 20 1005.9 - 0.0
17/05:30pm 20.3 16.3 20.1 99 0.1 SW 41 48 22 26 1005.4 - 0.0
17/05:04pm 21.5 15.5 18.7 84 1.8 SW 48 63 26 34 1005.9 - 0.0
17/05:00pm 23.4 15.4 16.7 66 4.1 W 54 61 29 33 1005.6 - 0.0
17/04:45pm 23.6 18.0 16.4 64 4.4 W 41 50 22 27 1005.5 - 0.0
17/04:30pm 23.1 19.1 16.6 67 4.0 WNW 33 41 18 22 1006.1 - 0.0
17/04:00pm 23.4 19.0 16.7 66 4.1 W 35 39 19 21 1006.4 - 0.0
17/03:30pm 24.3 18.6 17.1 64 4.5 W 43 50 23 27 1006.7 - 0.0
17/03:00pm 25.7 18.9 16.8 58 5.5 W 48 52 26 28 1006.3 1006.1 0.0
17/02:30pm 25.0 19.6 15.9 57 5.6 WNW 39 50 21 27 1006.5 - 0.0
17/02:00pm 24.3 21.0 17.1 64 4.5 WNW 30 39 16 21 1007.4 - 0.0
17/01:30pm 25.4 23.0 16.3 57 5.6 WNW 24 32 13 17 1007.5 - 0.0
17/01:00pm 25.9 24.0 16.7 57 5.7 NW 22 26 12 14 1007.6 - 0.0
17/12:30pm 24.1 22.6 16.4 62 4.7 NW 19 20 10 11 1007.5 - 0.0
17/12:00pm 24.5 23.2 16.7 61 4.8 NW 19 22 10 12 1007.6 1007.4 0.0
17/11:30am 24.9 24.8 18.8 69 3.9 NW 17 20 9 11 1007.6 - 0.0
17/11:00am 22.8 23.7 20.0 84 1.8 WNW 15 20 8 11 1007.9 - 0.0
17/10:30am 21.4 23.3 21.4 100 0.0 W 13 17 7 9 1008.2 - 0.0
17/10:00am 19.5 20.9 19.5 100 0.0 W 11 15 6 8 1008.5 - 0.0
17/09:30am 19.3 - 19.9 - - WNW 11 15 6 8 1008.6 - 0.0
17/09:00am 18.5 - - - - WNW 13 15 7 8 1008.8 1008.6 0.0
17/08:30am 17.9 - - - - W 15 20 8 11 1008.7 - 0.0
17/08:00am 17.7 - - - - W 17 19 9 10 1008.5 - 0.0
17/07:30am 17.6 - - - - NW 15 19 8 10 1008.0 - 0.0
17/07:00am 17.6 - - - - NNW 19 20 10 11 1007.7 - 0.0
17/06:30am 17.3 - - - - N 19 22 10 12 1007.4 - 0.0
17/06:00am 17.0 - 18.1 - - N 17 22 9 12 1007.4 1007.2 0.0
17/05:30am 17.0 - 18.1 - - N 17 19 9 10 1007.2 - 0.0
17/05:00am 17.2 - 18.3 - - NNE 17 26 9 14 1007.1 - 0.0
17/04:30am 16.5 - 17.6 - - NE 17 19 9 10 1007.0 - 0.0
17/04:00am 16.6 - 17.5 - - NNE 20 22 11 12 1007.1 - 0.0
17/03:30am 16.9 - 17.8 - - NNE 24 28 13 15 1007.7 - 0.0
17/03:00am 17.0 - 17.9 - - N 26 32 14 17 1008.1 1007.9 0.0
17/02:30am 17.0 - 17.8 - - N 30 35 16 19 1008.2 - 0.0
17/02:00am 16.9 - 17.7 - - N 32 37 17 20 1008.5 - 0.0
17/01:30am 16.9 - 17.7 - - N 32 35 17 19 1009.2 - 0.0
17/01:00am 16.6 - 17.5 - - N 26 32 14 17 1009.9 - 0.0
17/12:30am 16.4 - 17.3 - - N 24 28 13 15 1010.2 - 0.0
17/12:00am 16.3 - 17.1 - - N 26 32 14 17 1010.6 1010.5 0.0
 
Date/Time
EDT
Temp
°C
App
Temp
°C
Dew
Point
°C
Rel
Hum
%
Delta-T
°C
Wind Press
QNH
hPa
Press
MSL
hPa
Rain since
9am
mm
Dir  Spd
km/h
Gust
km/h
Spd
kts
Gust
kts
16/11:30pm 16.2 - 17.0 - - N 28 33 15 18 1010.7 - 0.0
16/11:00pm 16.0 - 16.6 - - N 28 32 15 17 1011.5 - 0.0
16/10:30pm 16.2 - 16.8 - - N 26 30 14 16 1011.8 - 0.0
16/10:00pm 15.9 - 16.4 - - NNE 22 26 12 14 1011.6 - 0.0
16/09:30pm 15.8 - 16.3 - - NNE 26 32 14 17 1011.8 - 0.0
16/09:00pm 15.4 - 15.9 - - NNE 28 30 15 16 1011.9 1011.7 0.0
16/08:30pm 15.2 - 15.5 - - NNE 22 24 12 13 1012.1 - 0.0
16/08:00pm 15.5 13.1 15.5 100 0.0 NNE 22 24 12 13 1012.1 - 0.0
16/07:30pm 16.6 16.0 16.6 100 0.0 N 15 17 8 9 1012.1 - 0.0
16/07:00pm 17.4 17.7 16.9 97 0.3 NNE 11 13 6 7 1011.7 - 0.0
16/06:30pm 19.0 20.3 17.0 88 1.2 WNW 6 9 3 5 1011.9 - 0.0
16/06:00pm 18.5 19.5 17.7 95 0.5 WNW 9 13 5 7 1012.2 1012.0 0.0
16/05:30pm 18.7 19.2 17.4 92 0.8 W 11 15 6 8 1012.5 - 0.0
16/05:00pm 18.9 18.5 17.2 90 1.0 WSW 15 17 8 9 1012.7 - 0.0
16/04:30pm 19.1 18.3 17.2 89 1.2 WSW 17 19 9 10 1013.0 - 0.0
16/04:00pm 19.2 18.3 16.8 86 1.5 WSW 17 20 9 11 1013.3 - 0.0
16/03:30pm 20.2 19.2 17.6 85 1.6 WSW 19 22 10 12 1013.5 - 0.0
16/03:00pm 19.6 17.7 16.8 84 1.7 WSW 22 26 12 14 1013.9 1013.7 0.0
16/02:30pm 20.4 18.7 17.2 82 2.0 WSW 22 26 12 14 1014.1 - 0.0
16/02:00pm 20.0 18.3 17.2 84 1.7 W 22 26 12 14 1014.4 - 0.0
16/01:30pm 20.0 18.5 17.6 86 1.5 W 22 28 12 15 1014.8 - 0.0
16/01:00pm 20.3 18.6 17.3 83 1.8 W 22 26 12 14 1014.8 - 0.0
16/12:30pm 18.7 16.9 15.9 84 1.7 W 20 24 11 13 1014.5 - 0.0
16/12:00pm 19.3 17.2 16.3 83 1.8 W 22 28 12 15 1014.9 1014.7 0.0
16/11:30am 19.3 16.1 16.3 83 1.8 W 28 32 15 17 1015.1 - 0.0
16/11:00am 18.4 15.4 15.8 85 1.5 W 26 30 14 16 1015.3 - 0.0
16/10:30am 18.8 15.8 16.8 88 1.2 W 28 33 15 18 1015.6 - 0.0
16/10:00am 17.2 13.2 16.1 93 0.7 W 32 39 17 21 1015.7 - 0.0
16/09:30am 16.5 12.5 16.2 98 0.2 W 32 41 17 22 1015.8 - 0.0

Other Formats:

Comma delimited format used in spreadsheet applications
http://www.bom.gov.au/fwo/IDV60801/IDV60801.94949.axf

JavaScript Object Notation format (JSON) in row-major order
http://www.bom.gov.au/fwo/IDV60801/IDV60801.94949.json